sensor_id;sensor_type;location;lat;lon;timestamp;P1;durP1;ratioP1;P2;durP2;ratioP2
75218;SDS011;63801;49.414;19.474;2022-10-04T00:01:12;7.25;;;2.50;;
75218;SDS011;63801;49.414;19.474;2022-10-04T00:05:26;5.85;;;2.65;;
75218;SDS011;63801;49.414;19.474;2022-10-04T00:07:40;6.05;;;2.40;;
75218;SDS011;63801;49.414;19.474;2022-10-04T00:14:21;7.38;;;2.45;;
75218;SDS011;63801;49.414;19.474;2022-10-04T00:16:30;8.98;;;2.22;;
75218;SDS011;63801;49.414;19.474;2022-10-04T00:18:38;5.32;;;2.20;;
75218;SDS011;63801;49.414;19.474;2022-10-04T00:25:34;8.13;;;1.88;;
75218;SDS011;63801;49.414;19.474;2022-10-04T00:27:36;7.75;;;2.20;;
75218;SDS011;63801;49.414;19.474;2022-10-04T00:29:38;4.40;;;2.22;;
75218;SDS011;63801;49.414;19.474;2022-10-04T00:38:25;5.65;;;2.33;;
75218;SDS011;63801;49.414;19.474;2022-10-04T00:40:34;6.60;;;2.38;;
75218;SDS011;63801;49.414;19.474;2022-10-04T00:42:52;7.03;;;2.25;;
75218;SDS011;63801;49.414;19.474;2022-10-04T00:47:20;6.70;;;3.60;;
75218;SDS011;63801;49.414;19.474;2022-10-04T00:49:35;8.63;;;2.50;;
75218;SDS011;63801;49.414;19.474;2022-10-04T00:51:41;4.78;;;2.83;;
75218;SDS011;63801;49.414;19.474;2022-10-04T00:54:02;6.15;;;2.55;;
75218;SDS011;63801;49.414;19.474;2022-10-04T00:56:14;6.03;;;3.00;;
75218;SDS011;63801;49.414;19.474;2022-10-04T00:58:23;5.50;;;2.70;;
75218;SDS011;63801;49.414;19.474;2022-10-04T01:00:28;7.53;;;2.65;;
75218;SDS011;63801;49.414;19.474;2022-10-04T01:04:55;8.07;;;2.85;;
75218;SDS011;63801;49.414;19.474;2022-10-04T01:07:14;4.07;;;2.63;;
75218;SDS011;63801;49.414;19.474;2022-10-04T01:09:17;8.02;;;2.88;;
75218;SDS011;63801;49.414;19.474;2022-10-04T01:13:37;4.72;;;2.83;;
75218;SDS011;63801;49.414;19.474;2022-10-04T01:15:59;4.75;;;2.42;;
75218;SDS011;63801;49.414;19.474;2022-10-04T01:18:08;4.03;;;2.35;;
75218;SDS011;63801;49.414;19.474;2022-10-04T01:20:27;5.80;;;2.95;;
75218;SDS011;63801;49.414;19.474;2022-10-04T01:22:31;5.38;;;2.20;;
75218;SDS011;63801;49.414;19.474;2022-10-04T01:24:38;7.72;;;2.70;;
75218;SDS011;63801;49.414;19.474;2022-10-04T01:26:41;8.02;;;2.90;;
75218;SDS011;63801;49.414;19.474;2022-10-04T01:28:42;5.85;;;2.80;;
75218;SDS011;63801;49.414;19.474;2022-10-04T01:30:43;5.80;;;2.60;;
75218;SDS011;63801;49.414;19.474;2022-10-04T01:32:43;6.28;;;2.85;;
75218;SDS011;63801;49.414;19.474;2022-10-04T01:34:44;9.20;;;2.83;;
75218;SDS011;63801;49.414;19.474;2022-10-04T01:36:44;9.63;;;3.20;;
75218;SDS011;63801;49.414;19.474;2022-10-04T01:38:46;6.57;;;2.80;;
75218;SDS011;63801;49.414;19.474;2022-10-04T01:40:50;4.25;;;2.70;;
75218;SDS011;63801;49.414;19.474;2022-10-04T01:42:56;6.88;;;2.67;;
75218;SDS011;63801;49.414;19.474;2022-10-04T01:45:39;7.45;;;2.70;;
75218;SDS011;63801;49.414;19.474;2022-10-04T01:47:50;6.32;;;2.78;;
75218;SDS011;63801;49.414;19.474;2022-10-04T01:49:55;7.97;;;2.63;;
75218;SDS011;63801;49.414;19.474;2022-10-04T01:54:18;7.28;;;3.58;;
75218;SDS011;63801;49.414;19.474;2022-10-04T01:56:22;5.88;;;3.50;;
75218;SDS011;63801;49.414;19.474;2022-10-04T01:58:29;4.25;;;3.00;;
75218;SDS011;63801;49.414;19.474;2022-10-04T02:00:40;5.15;;;3.20;;
75218;SDS011;63801;49.414;19.474;2022-10-04T02:05:26;7.25;;;3.90;;
75218;SDS011;63801;49.414;19.474;2022-10-04T02:07:30;12.73;;;5.03;;
75218;SDS011;63801;49.414;19.474;2022-10-04T02:09:33;13.35;;;4.90;;
75218;SDS011;63801;49.414;19.474;2022-10-04T02:11:37;10.18;;;4.35;;
75218;SDS011;63801;49.414;19.474;2022-10-04T02:13:40;8.90;;;4.38;;
75218;SDS011;63801;49.414;19.474;2022-10-04T02:15:41;7.22;;;4.18;;
75218;SDS011;63801;49.414;19.474;2022-10-04T02:17:42;7.22;;;4.13;;
75218;SDS011;63801;49.414;19.474;2022-10-04T02:19:43;7.72;;;2.88;;
75218;SDS011;63801;49.414;19.474;2022-10-04T02:21:44;7.88;;;2.50;;
75218;SDS011;63801;49.414;19.474;2022-10-04T02:23:46;8.30;;;2.15;;
75218;SDS011;63801;49.414;19.474;2022-10-04T02:25:47;9.43;;;1.95;;
75218;SDS011;63801;49.414;19.474;2022-10-04T02:27:50;7.28;;;2.30;;
75218;SDS011;63801;49.414;19.474;2022-10-04T02:30:03;7.18;;;2.25;;
75218;SDS011;63801;49.414;19.474;2022-10-04T02:32:08;5.53;;;2.10;;
75218;SDS011;63801;49.414;19.474;2022-10-04T02:34:28;5.45;;;2.20;;
75218;SDS011;63801;49.414;19.474;2022-10-04T02:36:29;9.10;;;2.53;;
75218;SDS011;63801;49.414;19.474;2022-10-04T02:38:32;10.15;;;2.08;;
75218;SDS011;63801;49.414;19.474;2022-10-04T02:40:37;7.22;;;1.90;;
75218;SDS011;63801;49.414;19.474;2022-10-04T02:42:47;7.57;;;2.00;;
75218;SDS011;63801;49.414;19.474;2022-10-04T02:45:01;3.92;;;1.70;;
75218;SDS011;63801;49.414;19.474;2022-10-04T02:47:12;5.45;;;1.73;;
75218;SDS011;63801;49.414;19.474;2022-10-04T02:51:41;6.55;;;2.20;;
75218;SDS011;63801;49.414;19.474;2022-10-04T02:54:02;6.53;;;1.80;;
75218;SDS011;63801;49.414;19.474;2022-10-04T02:56:09;3.05;;;1.50;;
75218;SDS011;63801;49.414;19.474;2022-10-04T02:58:12;4.72;;;1.55;;
75218;SDS011;63801;49.414;19.474;2022-10-04T03:00:21;5.90;;;1.70;;
75218;SDS011;63801;49.414;19.474;2022-10-04T03:02:29;6.63;;;1.42;;
75218;SDS011;63801;49.414;19.474;2022-10-04T03:04:31;2.22;;;1.30;;
75218;SDS011;63801;49.414;19.474;2022-10-04T03:06:36;5.32;;;1.52;;
75218;SDS011;63801;49.414;19.474;2022-10-04T03:10:57;6.72;;;1.70;;
75218;SDS011;63801;49.414;19.474;2022-10-04T03:12:58;5.03;;;1.90;;
75218;SDS011;63801;49.414;19.474;2022-10-04T03:14:59;5.03;;;1.25;;
75218;SDS011;63801;49.414;19.474;2022-10-04T03:17:00;4.60;;;1.45;;
75218;SDS011;63801;49.414;19.474;2022-10-04T03:19:03;4.32;;;1.25;;
75218;SDS011;63801;49.414;19.474;2022-10-04T03:21:05;3.17;;;1.33;;
75218;SDS011;63801;49.414;19.474;2022-10-04T03:23:09;7.28;;;1.83;;
75218;SDS011;63801;49.414;19.474;2022-10-04T03:25:24;5.97;;;1.63;;
75218;SDS011;63801;49.414;19.474;2022-10-04T03:27:30;6.25;;;1.52;;
75218;SDS011;63801;49.414;19.474;2022-10-04T03:29:33;4.88;;;1.05;;
75218;SDS011;63801;49.414;19.474;2022-10-04T03:31:36;6.28;;;1.40;;
75218;SDS011;63801;49.414;19.474;2022-10-04T03:33:40;4.80;;;1.50;;
75218;SDS011;63801;49.414;19.474;2022-10-04T03:35:43;5.50;;;1.60;;
75218;SDS011;63801;49.414;19.474;2022-10-04T03:37:46;6.68;;;1.30;;
75218;SDS011;63801;49.414;19.474;2022-10-04T03:39:48;5.10;;;1.50;;
75218;SDS011;63801;49.414;19.474;2022-10-04T03:41:51;3.15;;;1.40;;
75218;SDS011;63801;49.414;19.474;2022-10-04T03:43:52;2.80;;;1.50;;
75218;SDS011;63801;49.414;19.474;2022-10-04T03:45:55;8.75;;;1.48;;
75218;SDS011;63801;49.414;19.474;2022-10-04T03:48:00;4.63;;;1.10;;
75218;SDS011;63801;49.414;19.474;2022-10-04T03:50:13;6.05;;;1.70;;
75218;SDS011;63801;49.414;19.474;2022-10-04T03:52:24;6.22;;;1.65;;
75218;SDS011;63801;49.414;19.474;2022-10-04T03:54:32;4.60;;;1.40;;
75218;SDS011;63801;49.414;19.474;2022-10-04T03:56:34;3.75;;;1.40;;
75218;SDS011;63801;49.414;19.474;2022-10-04T03:58:35;7.25;;;1.50;;
75218;SDS011;63801;49.414;19.474;2022-10-04T04:00:37;12.55;;;1.98;;
75218;SDS011;63801;49.414;19.474;2022-10-04T04:02:44;6.00;;;1.50;;
75218;SDS011;63801;49.414;19.474;2022-10-04T04:07:21;5.53;;;1.65;;
75218;SDS011;63801;49.414;19.474;2022-10-04T04:11:38;6.43;;;1.50;;
75218;SDS011;63801;49.414;19.474;2022-10-04T04:13:43;7.32;;;1.63;;
75218;SDS011;63801;49.414;19.474;2022-10-04T04:15:53;5.70;;;1.70;;
75218;SDS011;63801;49.414;19.474;2022-10-04T04:17:54;6.63;;;1.77;;
75218;SDS011;63801;49.414;19.474;2022-10-04T04:19:59;13.13;;;1.60;;
75218;SDS011;63801;49.414;19.474;2022-10-04T04:22:02;7.03;;;1.67;;
75218;SDS011;63801;49.414;19.474;2022-10-04T04:24:04;7.35;;;1.85;;
75218;SDS011;63801;49.414;19.474;2022-10-04T04:26:15;6.45;;;2.28;;
75218;SDS011;63801;49.414;19.474;2022-10-04T04:30:37;5.82;;;1.85;;
75218;SDS011;63801;49.414;19.474;2022-10-04T04:32:44;7.93;;;1.63;;
75218;SDS011;63801;49.414;19.474;2022-10-04T04:34:57;7.07;;;1.88;;
75218;SDS011;63801;49.414;19.474;2022-10-04T04:37:00;7.32;;;1.55;;
75218;SDS011;63801;49.414;19.474;2022-10-04T04:41:38;6.47;;;1.60;;
75218;SDS011;63801;49.414;19.474;2022-10-04T04:43:41;7.18;;;1.58;;
75218;SDS011;63801;49.414;19.474;2022-10-04T04:45:43;4.28;;;1.60;;
75218;SDS011;63801;49.414;19.474;2022-10-04T04:47:48;10.60;;;2.08;;
75218;SDS011;63801;49.414;19.474;2022-10-04T04:49:50;4.97;;;1.75;;
75218;SDS011;63801;49.414;19.474;2022-10-04T04:51:52;10.82;;;1.92;;
75218;SDS011;63801;49.414;19.474;2022-10-04T04:53:52;4.32;;;1.75;;
75218;SDS011;63801;49.414;19.474;2022-10-04T04:55:56;6.35;;;1.98;;
75218;SDS011;63801;49.414;19.474;2022-10-04T04:57:58;6.95;;;1.90;;
75218;SDS011;63801;49.414;19.474;2022-10-04T04:59:59;8.98;;;2.10;;
75218;SDS011;63801;49.414;19.474;2022-10-04T05:02:01;6.45;;;1.92;;
75218;SDS011;63801;49.414;19.474;2022-10-04T05:04:04;5.35;;;1.73;;
75218;SDS011;63801;49.414;19.474;2022-10-04T05:06:23;7.53;;;1.60;;
75218;SDS011;63801;49.414;19.474;2022-10-04T05:08:25;7.50;;;1.92;;
75218;SDS011;63801;49.414;19.474;2022-10-04T05:10:31;3.95;;;1.50;;
75218;SDS011;63801;49.414;19.474;2022-10-04T05:12:32;5.80;;;1.42;;
75218;SDS011;63801;49.414;19.474;2022-10-04T05:14:53;6.43;;;1.98;;
75218;SDS011;63801;49.414;19.474;2022-10-04T05:16:53;5.10;;;1.75;;
75218;SDS011;63801;49.414;19.474;2022-10-04T05:18:58;3.00;;;1.92;;
75218;SDS011;63801;49.414;19.474;2022-10-04T05:21:35;1.88;;;1.52;;
75218;SDS011;63801;49.414;19.474;2022-10-04T05:23:28;4.97;;;1.77;;
75218;SDS011;63801;49.414;19.474;2022-10-04T05:25:32;7.38;;;2.10;;
75218;SDS011;63801;49.414;19.474;2022-10-04T05:27:36;6.25;;;1.50;;
75218;SDS011;63801;49.414;19.474;2022-10-04T05:29:40;5.68;;;1.90;;
75218;SDS011;63801;49.414;19.474;2022-10-04T05:33:57;1.90;;;1.50;;
75218;SDS011;63801;49.414;19.474;2022-10-04T05:36:15;6.85;;;2.10;;
75218;SDS011;63801;49.414;19.474;2022-10-04T05:42:44;3.08;;;1.50;;
75218;SDS011;63801;49.414;19.474;2022-10-04T05:46:56;6.85;;;1.58;;
75218;SDS011;63801;49.414;19.474;2022-10-04T05:49:06;3.85;;;1.90;;
75218;SDS011;63801;49.414;19.474;2022-10-04T05:53:47;5.13;;;1.98;;
75218;SDS011;63801;49.414;19.474;2022-10-04T05:58:37;8.45;;;1.88;;
75218;SDS011;63801;49.414;19.474;2022-10-04T06:03:15;5.05;;;2.15;;
75218;SDS011;63801;49.414;19.474;2022-10-04T06:07:57;6.43;;;2.10;;
75218;SDS011;63801;49.414;19.474;2022-10-04T06:15:20;6.22;;;2.08;;
75218;SDS011;63801;49.414;19.474;2022-10-04T06:17:42;6.18;;;2.38;;
75218;SDS011;63801;49.414;19.474;2022-10-04T06:22:09;3.95;;;1.98;;
75218;SDS011;63801;49.414;19.474;2022-10-04T06:24:24;3.70;;;1.85;;
75218;SDS011;63801;49.414;19.474;2022-10-04T06:26:51;4.85;;;2.25;;
75218;SDS011;63801;49.414;19.474;2022-10-04T06:28:59;4.90;;;1.80;;
75218;SDS011;63801;49.414;19.474;2022-10-04T06:31:13;5.22;;;1.92;;
75218;SDS011;63801;49.414;19.474;2022-10-04T06:33:28;3.25;;;1.90;;
75218;SDS011;63801;49.414;19.474;2022-10-04T06:35:51;4.43;;;1.83;;
75218;SDS011;63801;49.414;19.474;2022-10-04T06:42:54;3.50;;;1.85;;
75218;SDS011;63801;49.414;19.474;2022-10-04T06:54:35;3.78;;;1.65;;
75218;SDS011;63801;49.414;19.474;2022-10-04T07:03:38;3.72;;;1.75;;
75218;SDS011;63801;49.414;19.474;2022-10-04T07:05:50;4.35;;;1.90;;
75218;SDS011;63801;49.414;19.474;2022-10-04T07:10:46;3.97;;;1.73;;
75218;SDS011;63801;49.414;19.474;2022-10-04T07:13:04;3.83;;;1.90;;
75218;SDS011;63801;49.414;19.474;2022-10-04T07:15:17;4.97;;;2.05;;
75218;SDS011;63801;49.414;19.474;2022-10-04T07:17:37;4.22;;;2.05;;
75218;SDS011;63801;49.414;19.474;2022-10-04T07:19:45;4.00;;;2.30;;
75218;SDS011;63801;49.414;19.474;2022-10-04T07:21:52;7.07;;;2.40;;
75218;SDS011;63801;49.414;19.474;2022-10-04T07:23:59;9.20;;;2.67;;
75218;SDS011;63801;49.414;19.474;2022-10-04T07:26:05;3.78;;;2.22;;
75218;SDS011;63801;49.414;19.474;2022-10-04T07:28:16;6.10;;;2.47;;
75218;SDS011;63801;49.414;19.474;2022-10-04T07:32:56;7.22;;;2.40;;
75218;SDS011;63801;49.414;19.474;2022-10-04T07:34:59;7.28;;;2.50;;
75218;SDS011;63801;49.414;19.474;2022-10-04T07:37:05;5.32;;;2.22;;
75218;SDS011;63801;49.414;19.474;2022-10-04T07:39:13;3.58;;;2.05;;
75218;SDS011;63801;49.414;19.474;2022-10-04T07:41:25;3.97;;;2.30;;
75218;SDS011;63801;49.414;19.474;2022-10-04T07:43:39;6.90;;;3.67;;
75218;SDS011;63801;49.414;19.474;2022-10-04T07:45:47;7.55;;;4.15;;
75218;SDS011;63801;49.414;19.474;2022-10-04T07:47:49;11.37;;;5.33;;
75218;SDS011;63801;49.414;19.474;2022-10-04T07:49:49;5.25;;;2.83;;
75218;SDS011;63801;49.414;19.474;2022-10-04T07:54:15;5.18;;;2.67;;
75218;SDS011;63801;49.414;19.474;2022-10-04T07:56:25;10.18;;;4.60;;
75218;SDS011;63801;49.414;19.474;2022-10-04T08:05:40;12.75;;;5.25;;
75218;SDS011;63801;49.414;19.474;2022-10-04T08:10:38;24.80;;;10.10;;
75218;SDS011;63801;49.414;19.474;2022-10-04T08:12:36;21.23;;;10.05;;
75218;SDS011;63801;49.414;19.474;2022-10-04T08:16:57;20.42;;;7.13;;
75218;SDS011;63801;49.414;19.474;2022-10-04T08:19:29;33.58;;;9.48;;
75218;SDS011;63801;49.414;19.474;2022-10-04T08:21:59;9.77;;;3.60;;
75218;SDS011;63801;49.414;19.474;2022-10-04T08:24:18;11.20;;;4.85;;
75218;SDS011;63801;49.414;19.474;2022-10-04T08:28:43;12.75;;;5.38;;
75218;SDS011;63801;49.414;19.474;2022-10-04T08:35:54;6.80;;;2.13;;
75218;SDS011;63801;49.414;19.474;2022-10-04T08:48:00;9.20;;;2.42;;
75218;SDS011;63801;49.414;19.474;2022-10-04T08:52:34;4.78;;;2.70;;
75218;SDS011;63801;49.414;19.474;2022-10-04T08:54:43;7.45;;;2.17;;
75218;SDS011;63801;49.414;19.474;2022-10-04T09:01:44;9.00;;;3.03;;
75218;SDS011;63801;49.414;19.474;2022-10-04T09:11:37;4.13;;;1.92;;
75218;SDS011;63801;49.414;19.474;2022-10-04T09:13:58;4.40;;;1.80;;
75218;SDS011;63801;49.414;19.474;2022-10-04T09:16:13;7.03;;;3.22;;
75218;SDS011;63801;49.414;19.474;2022-10-04T09:39:38;6.95;;;3.40;;
75218;SDS011;63801;49.414;19.474;2022-10-04T09:41:56;5.70;;;2.78;;
75218;SDS011;63801;49.414;19.474;2022-10-04T09:53:22;3.55;;;1.45;;
75218;SDS011;63801;49.414;19.474;2022-10-04T09:55:41;2.63;;;1.50;;
75218;SDS011;63801;49.414;19.474;2022-10-04T09:58:12;2.40;;;1.60;;
75218;SDS011;63801;49.414;19.474;2022-10-04T10:00:19;4.55;;;1.70;;
75218;SDS011;63801;49.414;19.474;2022-10-04T10:09:44;5.13;;;1.85;;
75218;SDS011;63801;49.414;19.474;2022-10-04T10:19:43;5.68;;;2.30;;
75218;SDS011;63801;49.414;19.474;2022-10-04T10:21:53;7.28;;;2.70;;
75218;SDS011;63801;49.414;19.474;2022-10-04T10:29:03;7.22;;;2.78;;
75218;SDS011;63801;49.414;19.474;2022-10-04T10:39:08;10.05;;;3.00;;
75218;SDS011;63801;49.414;19.474;2022-10-04T10:41:25;10.32;;;3.75;;
75218;SDS011;63801;49.414;19.474;2022-10-04T10:43:42;7.78;;;2.42;;
75218;SDS011;63801;49.414;19.474;2022-10-04T10:46:01;6.60;;;2.38;;
75218;SDS011;63801;49.414;19.474;2022-10-04T10:50:33;8.13;;;2.47;;
75218;SDS011;63801;49.414;19.474;2022-10-04T10:53:27;6.85;;;3.25;;
75218;SDS011;63801;49.414;19.474;2022-10-04T10:56:03;8.30;;;2.60;;
75218;SDS011;63801;49.414;19.474;2022-10-04T10:58:31;6.90;;;2.60;;
75218;SDS011;63801;49.414;19.474;2022-10-04T11:03:38;7.53;;;3.17;;
75218;SDS011;63801;49.414;19.474;2022-10-04T11:17:47;4.90;;;2.53;;
75218;SDS011;63801;49.414;19.474;2022-10-04T11:27:12;4.20;;;1.88;;
75218;SDS011;63801;49.414;19.474;2022-10-04T11:58:48;2.63;;;1.30;;
75218;SDS011;63801;49.414;19.474;2022-10-04T12:03:26;4.80;;;1.40;;
75218;SDS011;63801;49.414;19.474;2022-10-04T12:10:23;3.58;;;1.27;;
75218;SDS011;63801;49.414;19.474;2022-10-04T12:19:29;6.07;;;1.80;;
75218;SDS011;63801;49.414;19.474;2022-10-04T12:22:11;3.00;;;1.60;;
75218;SDS011;63801;49.414;19.474;2022-10-04T12:35:40;4.72;;;1.60;;
75218;SDS011;63801;49.414;19.474;2022-10-04T12:40:20;4.45;;;1.70;;
75218;SDS011;63801;49.414;19.474;2022-10-04T12:42:32;4.43;;;1.73;;
75218;SDS011;63801;49.414;19.474;2022-10-04T13:04:03;3.72;;;1.13;;
75218;SDS011;63801;49.414;19.474;2022-10-04T13:06:17;7.00;;;1.17;;
75218;SDS011;63801;49.414;19.474;2022-10-04T13:17:45;12.00;;;5.00;;
75218;SDS011;63801;49.414;19.474;2022-10-04T13:22:16;20.10;;;7.78;;
75218;SDS011;63801;49.414;19.474;2022-10-04T13:24:40;21.00;;;9.02;;
75218;SDS011;63801;49.414;19.474;2022-10-04T13:26:57;19.98;;;8.40;;
75218;SDS011;63801;49.414;19.474;2022-10-04T13:33:34;4.95;;;2.25;;
75218;SDS011;63801;49.414;19.474;2022-10-04T13:35:51;5.93;;;2.40;;
75218;SDS011;63801;49.414;19.474;2022-10-04T13:52:07;3.80;;;1.40;;
75218;SDS011;63801;49.414;19.474;2022-10-04T13:54:37;6.53;;;1.75;;
75218;SDS011;63801;49.414;19.474;2022-10-04T14:02:05;5.10;;;1.80;;
75218;SDS011;63801;49.414;19.474;2022-10-04T14:04:20;5.80;;;1.55;;
75218;SDS011;63801;49.414;19.474;2022-10-04T14:10:57;10.43;;;4.38;;
75218;SDS011;63801;49.414;19.474;2022-10-04T14:22:43;4.07;;;1.45;;
75218;SDS011;63801;49.414;19.474;2022-10-04T14:39:40;17.08;;;7.97;;
75218;SDS011;63801;49.414;19.474;2022-10-04T14:49:23;8.73;;;2.80;;
75218;SDS011;63801;49.414;19.474;2022-10-04T15:00:59;9.43;;;4.28;;
75218;SDS011;63801;49.414;19.474;2022-10-04T15:07:34;17.10;;;8.85;;
75218;SDS011;63801;49.414;19.474;2022-10-04T15:09:51;20.08;;;11.93;;
75218;SDS011;63801;49.414;19.474;2022-10-04T15:11:58;23.60;;;15.23;;
75218;SDS011;63801;49.414;19.474;2022-10-04T15:14:59;32.58;;;24.33;;
75218;SDS011;63801;49.414;19.474;2022-10-04T15:16:45;77.07;;;52.53;;
75218;SDS011;63801;49.414;19.474;2022-10-04T15:18:53;168.10;;;101.40;;
75218;SDS011;63801;49.414;19.474;2022-10-04T15:21:00;57.65;;;36.53;;
75218;SDS011;63801;49.414;19.474;2022-10-04T15:27:44;80.88;;;46.15;;
75218;SDS011;63801;49.414;19.474;2022-10-04T15:32:16;20.02;;;10.73;;
75218;SDS011;63801;49.414;19.474;2022-10-04T15:34:34;9.55;;;3.60;;
75218;SDS011;63801;49.414;19.474;2022-10-04T15:36:40;6.22;;;2.42;;
75218;SDS011;63801;49.414;19.474;2022-10-04T15:38:48;5.55;;;2.70;;
75218;SDS011;63801;49.414;19.474;2022-10-04T15:55:01;8.40;;;2.88;;
75218;SDS011;63801;49.414;19.474;2022-10-04T15:57:28;6.18;;;2.38;;
75218;SDS011;63801;49.414;19.474;2022-10-04T15:59:44;7.72;;;1.83;;
75218;SDS011;63801;49.414;19.474;2022-10-04T16:09:17;181.75;;;80.63;;
75218;SDS011;63801;49.414;19.474;2022-10-04T16:11:34;156.65;;;70.40;;
75218;SDS011;63801;49.414;19.474;2022-10-04T16:18:25;50.63;;;26.20;;
75218;SDS011;63801;49.414;19.474;2022-10-04T16:20:45;33.72;;;18.00;;
75218;SDS011;63801;49.414;19.474;2022-10-04T16:23:21;61.53;;;33.97;;
75218;SDS011;63801;49.414;19.474;2022-10-04T16:27:42;8.02;;;5.32;;
75218;SDS011;63801;49.414;19.474;2022-10-04T16:32:11;8.45;;;4.22;;
75218;SDS011;63801;49.414;19.474;2022-10-04T16:36:40;9.67;;;3.20;;
75218;SDS011;63801;49.414;19.474;2022-10-04T16:38:46;9.38;;;3.78;;
75218;SDS011;63801;49.414;19.474;2022-10-04T16:41:09;8.60;;;3.40;;
75218;SDS011;63801;49.414;19.474;2022-10-04T16:47:56;17.80;;;6.50;;
75218;SDS011;63801;49.414;19.474;2022-10-04T16:50:03;11.55;;;3.92;;
75218;SDS011;63801;49.414;19.474;2022-10-04T17:03:24;15.88;;;7.32;;
75218;SDS011;63801;49.414;19.474;2022-10-04T17:05:43;10.35;;;3.78;;
75218;SDS011;63801;49.414;19.474;2022-10-04T17:09:48;9.98;;;2.55;;
75218;SDS011;63801;49.414;19.474;2022-10-04T17:14:42;9.60;;;2.60;;
75218;SDS011;63801;49.414;19.474;2022-10-04T17:16:54;15.55;;;4.30;;
75218;SDS011;63801;49.414;19.474;2022-10-04T17:19:14;17.75;;;9.45;;
75218;SDS011;63801;49.414;19.474;2022-10-04T17:21:48;6.47;;;3.70;;
75218;SDS011;63801;49.414;19.474;2022-10-04T17:28:28;8.65;;;2.72;;
75218;SDS011;63801;49.414;19.474;2022-10-04T17:30:53;8.32;;;3.13;;
75218;SDS011;63801;49.414;19.474;2022-10-04T17:37:59;42.50;;;21.50;;
75218;SDS011;63801;49.414;19.474;2022-10-04T17:42:22;25.13;;;17.13;;
75218;SDS011;63801;49.414;19.474;2022-10-04T17:47:09;13.35;;;6.18;;
75218;SDS011;63801;49.414;19.474;2022-10-04T17:49:19;16.05;;;10.85;;
75218;SDS011;63801;49.414;19.474;2022-10-04T17:54:11;34.75;;;14.10;;
75218;SDS011;63801;49.414;19.474;2022-10-04T17:56:42;21.02;;;9.35;;
75218;SDS011;63801;49.414;19.474;2022-10-04T17:58:52;17.00;;;7.97;;
75218;SDS011;63801;49.414;19.474;2022-10-04T18:00:57;14.50;;;7.13;;
75218;SDS011;63801;49.414;19.474;2022-10-04T18:03:12;13.27;;;6.57;;
75218;SDS011;63801;49.414;19.474;2022-10-04T18:05:22;16.17;;;8.57;;
75218;SDS011;63801;49.414;19.474;2022-10-04T18:07:30;14.43;;;7.07;;
75218;SDS011;63801;49.414;19.474;2022-10-04T18:11:45;14.07;;;4.75;;
75218;SDS011;63801;49.414;19.474;2022-10-04T18:16:14;11.93;;;5.53;;
75218;SDS011;63801;49.414;19.474;2022-10-04T18:18:23;12.48;;;4.22;;
75218;SDS011;63801;49.414;19.474;2022-10-04T18:20:35;9.65;;;4.55;;
75218;SDS011;63801;49.414;19.474;2022-10-04T18:22:48;14.23;;;5.80;;
75218;SDS011;63801;49.414;19.474;2022-10-04T18:27:23;12.20;;;5.38;;
75218;SDS011;63801;49.414;19.474;2022-10-04T18:29:37;11.32;;;4.10;;
75218;SDS011;63801;49.414;19.474;2022-10-04T18:31:38;12.07;;;4.60;;
75218;SDS011;63801;49.414;19.474;2022-10-04T18:35:49;14.55;;;7.28;;
75218;SDS011;63801;49.414;19.474;2022-10-04T18:40:12;16.40;;;7.32;;
75218;SDS011;63801;49.414;19.474;2022-10-04T18:42:33;22.15;;;7.45;;
75218;SDS011;63801;49.414;19.474;2022-10-04T18:44:43;14.02;;;6.15;;
75218;SDS011;63801;49.414;19.474;2022-10-04T18:46:47;12.65;;;5.75;;
75218;SDS011;63801;49.414;19.474;2022-10-04T18:48:56;9.18;;;4.28;;
75218;SDS011;63801;49.414;19.474;2022-10-04T18:51:14;14.60;;;5.40;;
75218;SDS011;63801;49.414;19.474;2022-10-04T18:53:31;14.43;;;6.07;;
75218;SDS011;63801;49.414;19.474;2022-10-04T18:56:04;23.90;;;9.73;;
75218;SDS011;63801;49.414;19.474;2022-10-04T18:58:18;16.92;;;6.95;;
75218;SDS011;63801;49.414;19.474;2022-10-04T19:00:40;15.15;;;4.57;;
75218;SDS011;63801;49.414;19.474;2022-10-04T19:05:38;20.98;;;10.32;;
75218;SDS011;63801;49.414;19.474;2022-10-04T19:12:33;14.27;;;7.25;;
75218;SDS011;63801;49.414;19.474;2022-10-04T19:14:47;31.17;;;14.35;;
75218;SDS011;63801;49.414;19.474;2022-10-04T19:16:57;31.55;;;15.98;;
75218;SDS011;63801;49.414;19.474;2022-10-04T19:21:43;48.58;;;19.23;;
75218;SDS011;63801;49.414;19.474;2022-10-04T19:26:21;30.38;;;13.65;;
75218;SDS011;63801;49.414;19.474;2022-10-04T19:28:29;28.83;;;11.77;;
75218;SDS011;63801;49.414;19.474;2022-10-04T19:35:34;12.73;;;4.18;;
75218;SDS011;63801;49.414;19.474;2022-10-04T19:37:38;18.90;;;8.10;;
75218;SDS011;63801;49.414;19.474;2022-10-04T19:42:10;12.25;;;4.82;;
75218;SDS011;63801;49.414;19.474;2022-10-04T19:44:19;11.80;;;4.72;;
75218;SDS011;63801;49.414;19.474;2022-10-04T19:46:35;19.38;;;6.38;;
75218;SDS011;63801;49.414;19.474;2022-10-04T19:48:48;15.30;;;5.20;;
75218;SDS011;63801;49.414;19.474;2022-10-04T19:50:52;18.17;;;9.15;;
75218;SDS011;63801;49.414;19.474;2022-10-04T19:53:13;10.05;;;5.47;;
75218;SDS011;63801;49.414;19.474;2022-10-04T19:55:19;54.47;;;24.98;;
75218;SDS011;63801;49.414;19.474;2022-10-04T19:57:50;96.65;;;41.88;;
75218;SDS011;63801;49.414;19.474;2022-10-04T19:59:57;100.85;;;44.58;;
75218;SDS011;63801;49.414;19.474;2022-10-04T20:01:58;65.47;;;29.88;;
75218;SDS011;63801;49.414;19.474;2022-10-04T20:03:58;50.95;;;25.95;;
75218;SDS011;63801;49.414;19.474;2022-10-04T20:06:20;46.60;;;24.00;;
75218;SDS011;63801;49.414;19.474;2022-10-04T20:08:47;46.25;;;23.10;;
75218;SDS011;63801;49.414;19.474;2022-10-04T20:13:40;71.88;;;32.13;;
75218;SDS011;63801;49.414;19.474;2022-10-04T20:15:42;58.50;;;27.17;;
75218;SDS011;63801;49.414;19.474;2022-10-04T20:17:46;51.42;;;25.77;;
75218;SDS011;63801;49.414;19.474;2022-10-04T20:19:47;44.70;;;23.90;;
75218;SDS011;63801;49.414;19.474;2022-10-04T20:21:48;183.65;;;69.68;;
75218;SDS011;63801;49.414;19.474;2022-10-04T20:23:49;91.13;;;41.33;;
75218;SDS011;63801;49.414;19.474;2022-10-04T20:27:58;90.10;;;41.78;;
75218;SDS011;63801;49.414;19.474;2022-10-04T20:30:01;67.80;;;32.60;;
75218;SDS011;63801;49.414;19.474;2022-10-04T20:34:47;89.28;;;41.15;;
75218;SDS011;63801;49.414;19.474;2022-10-04T20:36:48;69.72;;;32.72;;
75218;SDS011;63801;49.414;19.474;2022-10-04T20:38:54;71.95;;;34.72;;
75218;SDS011;63801;49.414;19.474;2022-10-04T20:40:59;131.90;;;58.40;;
75218;SDS011;63801;49.414;19.474;2022-10-04T20:49:56;85.60;;;35.92;;
75218;SDS011;63801;49.414;19.474;2022-10-04T20:51:58;76.18;;;34.83;;
75218;SDS011;63801;49.414;19.474;2022-10-04T20:53:59;75.93;;;36.63;;
75218;SDS011;63801;49.414;19.474;2022-10-04T20:56:19;70.18;;;33.83;;
75218;SDS011;63801;49.414;19.474;2022-10-04T21:00:32;115.22;;;55.15;;
75218;SDS011;63801;49.414;19.474;2022-10-04T21:02:33;138.18;;;66.47;;
75218;SDS011;63801;49.414;19.474;2022-10-04T21:04:33;123.28;;;57.85;;
75218;SDS011;63801;49.414;19.474;2022-10-04T21:06:52;107.88;;;49.92;;
75218;SDS011;63801;49.414;19.474;2022-10-04T21:08:56;61.00;;;28.45;;
75218;SDS011;63801;49.414;19.474;2022-10-04T21:11:39;49.17;;;21.50;;
75218;SDS011;63801;49.414;19.474;2022-10-04T21:13:37;42.65;;;20.50;;
75218;SDS011;63801;49.414;19.474;2022-10-04T21:15:53;65.47;;;28.02;;
75218;SDS011;63801;49.414;19.474;2022-10-04T21:17:58;117.78;;;55.38;;
75218;SDS011;63801;49.414;19.474;2022-10-04T21:19:59;77.70;;;39.85;;